sensor_id;sensor_type;location;lat;lon;timestamp;temperature;humidity
24164;DHT22;12319;49.204;8.116;2023-06-22T00:01:19;23.90;80.80
24164;DHT22;12319;49.204;8.116;2023-06-22T00:03:45;24.00;80.90
24164;DHT22;12319;49.204;8.116;2023-06-22T00:06:10;23.90;80.80
24164;DHT22;12319;49.204;8.116;2023-06-22T00:08:36;23.90;80.80
24164;DHT22;12319;49.204;8.116;2023-06-22T00:11:01;23.90;80.90
24164;DHT22;12319;49.204;8.116;2023-06-22T00:13:27;23.90;80.80
24164;DHT22;12319;49.204;8.116;2023-06-22T00:15:53;23.90;80.90
24164;DHT22;12319;49.204;8.116;2023-06-22T00:18:18;23.90;81.50
24164;DHT22;12319;49.204;8.116;2023-06-22T00:20:44;23.90;82.60
24164;DHT22;12319;49.204;8.116;2023-06-22T00:23:11;23.90;82.20
24164;DHT22;12319;49.204;8.116;2023-06-22T00:25:37;23.80;82.30
24164;DHT22;12319;49.204;8.116;2023-06-22T00:28:05;23.80;82.60
24164;DHT22;12319;49.204;8.116;2023-06-22T00:30:31;23.70;83.10
24164;DHT22;12319;49.204;8.116;2023-06-22T00:32:58;23.70;83.80
24164;DHT22;12319;49.204;8.116;2023-06-22T00:35:24;23.60;83.20
24164;DHT22;12319;49.204;8.116;2023-06-22T00:37:57;23.60;84.70
24164;DHT22;12319;49.204;8.116;2023-06-22T00:40:32;23.40;85.70
24164;DHT22;12319;49.204;8.116;2023-06-22T00:42:58;23.30;86.60
24164;DHT22;12319;49.204;8.116;2023-06-22T00:45:24;23.20;86.80
24164;DHT22;12319;49.204;8.116;2023-06-22T00:47:54;23.20;87.20
24164;DHT22;12319;49.204;8.116;2023-06-22T00:50:22;23.20;87.70
24164;DHT22;12319;49.204;8.116;2023-06-22T00:52:51;23.10;87.90
24164;DHT22;12319;49.204;8.116;2023-06-22T00:55:18;23.10;88.50
24164;DHT22;12319;49.204;8.116;2023-06-22T00:57:46;23.10;88.80
24164;DHT22;12319;49.204;8.116;2023-06-22T01:00:12;23.10;89.50
24164;DHT22;12319;49.204;8.116;2023-06-22T01:02:43;23.10;89.40
24164;DHT22;12319;49.204;8.116;2023-06-22T01:05:14;23.10;89.60
24164;DHT22;12319;49.204;8.116;2023-06-22T01:08:26;23.10;89.80
24164;DHT22;12319;49.204;8.116;2023-06-22T01:13:55;23.10;90.70
24164;DHT22;12319;49.204;8.116;2023-06-22T01:16:25;23.00;90.80
24164;DHT22;12319;49.204;8.116;2023-06-22T01:18:54;23.00;90.60
24164;DHT22;12319;49.204;8.116;2023-06-22T01:21:21;22.90;90.50
24164;DHT22;12319;49.204;8.116;2023-06-22T01:27:08;22.90;91.40
24164;DHT22;12319;49.204;8.116;2023-06-22T01:29:36;22.80;91.30
24164;DHT22;12319;49.204;8.116;2023-06-22T01:32:05;22.80;91.30
24164;DHT22;12319;49.204;8.116;2023-06-22T01:34:32;22.80;91.30
24164;DHT22;12319;49.204;8.116;2023-06-22T01:36:59;22.80;91.40
24164;DHT22;12319;49.204;8.116;2023-06-22T01:39:25;22.80;91.40
24164;DHT22;12319;49.204;8.116;2023-06-22T01:41:52;22.80;91.60
24164;DHT22;12319;49.204;8.116;2023-06-22T01:44:19;22.80;91.80
24164;DHT22;12319;49.204;8.116;2023-06-22T01:46:45;22.80;91.60
24164;DHT22;12319;49.204;8.116;2023-06-22T01:49:11;22.80;91.70
24164;DHT22;12319;49.204;8.116;2023-06-22T01:51:37;22.90;91.90
24164;DHT22;12319;49.204;8.116;2023-06-22T01:54:05;22.80;91.80
24164;DHT22;12319;49.204;8.116;2023-06-22T01:56:31;22.70;91.80
24164;DHT22;12319;49.204;8.116;2023-06-22T01:59:09;22.80;91.90
24164;DHT22;12319;49.204;8.116;2023-06-22T02:01:43;22.70;92.10
24164;DHT22;12319;49.204;8.116;2023-06-22T02:04:13;22.70;92.10
24164;DHT22;12319;49.204;8.116;2023-06-22T02:06:45;22.70;92.20
24164;DHT22;12319;49.204;8.116;2023-06-22T02:09:17;22.70;92.10
24164;DHT22;12319;49.204;8.116;2023-06-22T02:11:45;22.60;92.20
24164;DHT22;12319;49.204;8.116;2023-06-22T02:14:13;22.60;92.20
24164;DHT22;12319;49.204;8.116;2023-06-22T02:16:39;22.60;92.30
24164;DHT22;12319;49.204;8.116;2023-06-22T02:19:04;22.60;92.30
24164;DHT22;12319;49.204;8.116;2023-06-22T02:21:31;22.50;92.30
24164;DHT22;12319;49.204;8.116;2023-06-22T02:23:57;22.50;92.40
24164;DHT22;12319;49.204;8.116;2023-06-22T02:26:24;22.40;92.40
24164;DHT22;12319;49.204;8.116;2023-06-22T02:28:50;22.40;92.60
24164;DHT22;12319;49.204;8.116;2023-06-22T02:31:16;22.30;92.60
24164;DHT22;12319;49.204;8.116;2023-06-22T02:33:41;22.30;92.60
24164;DHT22;12319;49.204;8.116;2023-06-22T02:36:07;22.10;92.60
24164;DHT22;12319;49.204;8.116;2023-06-22T02:38:35;22.20;92.70
24164;DHT22;12319;49.204;8.116;2023-06-22T02:41:02;22.20;92.80
24164;DHT22;12319;49.204;8.116;2023-06-22T02:43:27;22.20;92.90
24164;DHT22;12319;49.204;8.116;2023-06-22T02:45:53;22.20;92.90
24164;DHT22;12319;49.204;8.116;2023-06-22T02:48:19;22.20;93.10
24164;DHT22;12319;49.204;8.116;2023-06-22T02:50:44;22.00;93.00
24164;DHT22;12319;49.204;8.116;2023-06-22T02:53:10;22.00;93.10
24164;DHT22;12319;49.204;8.116;2023-06-22T02:55:35;22.00;93.30
24164;DHT22;12319;49.204;8.116;2023-06-22T02:58:01;22.00;93.60
24164;DHT22;12319;49.204;8.116;2023-06-22T03:00:30;21.90;93.20
24164;DHT22;12319;49.204;8.116;2023-06-22T03:02:56;21.90;93.40
24164;DHT22;12319;49.204;8.116;2023-06-22T03:05:22;21.90;93.50
24164;DHT22;12319;49.204;8.116;2023-06-22T03:07:48;21.90;93.60
24164;DHT22;12319;49.204;8.116;2023-06-22T03:10:14;21.90;93.60
24164;DHT22;12319;49.204;8.116;2023-06-22T03:12:41;22.00;93.70
24164;DHT22;12319;49.204;8.116;2023-06-22T03:15:09;21.90;93.70
24164;DHT22;12319;49.204;8.116;2023-06-22T03:17:36;21.90;93.70
24164;DHT22;12319;49.204;8.116;2023-06-22T03:20:03;21.90;93.80
24164;DHT22;12319;49.204;8.116;2023-06-22T03:22:37;21.90;93.70
24164;DHT22;12319;49.204;8.116;2023-06-22T03:25:02;22.00;93.90
24164;DHT22;12319;49.204;8.116;2023-06-22T03:27:28;21.80;93.80
24164;DHT22;12319;49.204;8.116;2023-06-22T03:29:53;21.80;93.80
24164;DHT22;12319;49.204;8.116;2023-06-22T03:32:19;21.90;93.90
24164;DHT22;12319;49.204;8.116;2023-06-22T03:34:44;21.90;93.90
24164;DHT22;12319;49.204;8.116;2023-06-22T03:37:16;21.90;94.00
24164;DHT22;12319;49.204;8.116;2023-06-22T03:39:41;21.90;94.10
24164;DHT22;12319;49.204;8.116;2023-06-22T03:42:07;21.80;94.00
24164;DHT22;12319;49.204;8.116;2023-06-22T03:44:33;21.80;94.00
24164;DHT22;12319;49.204;8.116;2023-06-22T03:46:58;21.80;94.10
24164;DHT22;12319;49.204;8.116;2023-06-22T03:49:24;21.80;94.10
24164;DHT22;12319;49.204;8.116;2023-06-22T03:51:49;21.70;94.10
24164;DHT22;12319;49.204;8.116;2023-06-22T03:54:15;21.80;94.40
24164;DHT22;12319;49.204;8.116;2023-06-22T03:56:41;21.80;94.40
24164;DHT22;12319;49.204;8.116;2023-06-22T03:59:06;21.80;94.40
24164;DHT22;12319;49.204;8.116;2023-06-22T04:01:32;21.80;94.40
24164;DHT22;12319;49.204;8.116;2023-06-22T04:03:57;21.80;94.40
24164;DHT22;12319;49.204;8.116;2023-06-22T04:06:23;21.80;94.40
24164;DHT22;12319;49.204;8.116;2023-06-22T04:08:48;21.90;94.40
24164;DHT22;12319;49.204;8.116;2023-06-22T04:11:17;21.90;94.50
24164;DHT22;12319;49.204;8.116;2023-06-22T04:13:43;22.00;94.50
24164;DHT22;12319;49.204;8.116;2023-06-22T04:16:08;21.90;94.40
24164;DHT22;12319;49.204;8.116;2023-06-22T04:18:34;22.00;94.40
24164;DHT22;12319;49.204;8.116;2023-06-22T04:20:59;22.00;94.40
24164;DHT22;12319;49.204;8.116;2023-06-22T04:23:25;22.10;94.40
24164;DHT22;12319;49.204;8.116;2023-06-22T04:25:50;22.10;94.50
24164;DHT22;12319;49.204;8.116;2023-06-22T04:28:17;22.20;94.50
24164;DHT22;12319;49.204;8.116;2023-06-22T04:30:42;22.20;94.50
24164;DHT22;12319;49.204;8.116;2023-06-22T04:33:15;22.10;94.40
24164;DHT22;12319;49.204;8.116;2023-06-22T04:35:41;22.20;94.60
24164;DHT22;12319;49.204;8.116;2023-06-22T04:38:06;22.30;94.60
24164;DHT22;12319;49.204;8.116;2023-06-22T04:40:32;22.30;94.40
24164;DHT22;12319;49.204;8.116;2023-06-22T04:42:58;22.40;94.40
24164;DHT22;12319;49.204;8.116;2023-06-22T04:45:27;22.40;94.50
24164;DHT22;12319;49.204;8.116;2023-06-22T04:47:53;22.50;94.70
24164;DHT22;12319;49.204;8.116;2023-06-22T04:50:18;22.60;94.50
24164;DHT22;12319;49.204;8.116;2023-06-22T04:52:46;22.60;94.40
24164;DHT22;12319;49.204;8.116;2023-06-22T04:55:12;22.70;94.30
24164;DHT22;12319;49.204;8.116;2023-06-22T04:57:37;22.90;94.40
24164;DHT22;12319;49.204;8.116;2023-06-22T05:00:05;22.90;94.20
24164;DHT22;12319;49.204;8.116;2023-06-22T05:02:38;23.00;94.10
24164;DHT22;12319;49.204;8.116;2023-06-22T05:05:04;23.10;94.10
24164;DHT22;12319;49.204;8.116;2023-06-22T05:07:33;23.20;94.10
24164;DHT22;12319;49.204;8.116;2023-06-22T05:09:59;23.30;94.10
24164;DHT22;12319;49.204;8.116;2023-06-22T05:12:25;23.40;94.10
24164;DHT22;12319;49.204;8.116;2023-06-22T05:14:50;23.60;94.10
24164;DHT22;12319;49.204;8.116;2023-06-22T05:17:16;23.60;94.00
24164;DHT22;12319;49.204;8.116;2023-06-22T05:19:44;23.80;93.90
24164;DHT22;12319;49.204;8.116;2023-06-22T05:22:16;24.10;93.80
24164;DHT22;12319;49.204;8.116;2023-06-22T05:24:42;24.20;93.70
24164;DHT22;12319;49.204;8.116;2023-06-22T05:27:08;24.30;93.50
24164;DHT22;12319;49.204;8.116;2023-06-22T05:29:34;24.40;93.40
24164;DHT22;12319;49.204;8.116;2023-06-22T05:32:00;24.50;93.20
24164;DHT22;12319;49.204;8.116;2023-06-22T05:34:26;24.70;93.20
24164;DHT22;12319;49.204;8.116;2023-06-22T05:36:51;24.90;93.20
24164;DHT22;12319;49.204;8.116;2023-06-22T05:39:17;25.00;93.00
24164;DHT22;12319;49.204;8.116;2023-06-22T05:41:44;25.20;92.80
24164;DHT22;12319;49.204;8.116;2023-06-22T05:44:09;25.40;92.70
24164;DHT22;12319;49.204;8.116;2023-06-22T05:46:35;25.80;92.60
24164;DHT22;12319;49.204;8.116;2023-06-22T05:49:01;26.20;92.70
24164;DHT22;12319;49.204;8.116;2023-06-22T05:51:26;27.10;92.40
24164;DHT22;12319;49.204;8.116;2023-06-22T05:53:52;28.20;91.40
24164;DHT22;12319;49.204;8.116;2023-06-22T05:56:17;29.30;90.20
24164;DHT22;12319;49.204;8.116;2023-06-22T05:58:43;30.40;86.50
24164;DHT22;12319;49.204;8.116;2023-06-22T06:01:08;31.40;84.00
24164;DHT22;12319;49.204;8.116;2023-06-22T06:03:34;32.30;80.70
24164;DHT22;12319;49.204;8.116;2023-06-22T06:06:07;33.10;76.60
24164;DHT22;12319;49.204;8.116;2023-06-22T06:08:32;33.90;75.60
24164;DHT22;12319;49.204;8.116;2023-06-22T06:10:58;34.40;73.10
24164;DHT22;12319;49.204;8.116;2023-06-22T06:13:24;35.00;72.00
24164;DHT22;12319;49.204;8.116;2023-06-22T06:15:49;35.50;69.10
24164;DHT22;12319;49.204;8.116;2023-06-22T06:18:17;35.90;67.90
24164;DHT22;12319;49.204;8.116;2023-06-22T06:20:42;36.40;66.90
24164;DHT22;12319;49.204;8.116;2023-06-22T06:23:08;36.90;64.80
24164;DHT22;12319;49.204;8.116;2023-06-22T06:25:33;37.40;64.00
24164;DHT22;12319;49.204;8.116;2023-06-22T06:27:59;37.80;62.70
24164;DHT22;12319;49.204;8.116;2023-06-22T06:30:25;38.10;60.90
24164;DHT22;12319;49.204;8.116;2023-06-22T06:32:51;38.20;59.10
24164;DHT22;12319;49.204;8.116;2023-06-22T06:35:17;38.30;58.50
24164;DHT22;12319;49.204;8.116;2023-06-22T06:37:44;38.30;59.00
24164;DHT22;12319;49.204;8.116;2023-06-22T06:40:12;38.30;58.00
24164;DHT22;12319;49.204;8.116;2023-06-22T06:42:38;38.30;56.80
24164;DHT22;12319;49.204;8.116;2023-06-22T06:45:06;38.40;56.90
24164;DHT22;12319;49.204;8.116;2023-06-22T06:47:32;38.70;56.60
24164;DHT22;12319;49.204;8.116;2023-06-22T06:49:57;38.50;54.90
24164;DHT22;12319;49.204;8.116;2023-06-22T06:52:23;38.50;55.40
24164;DHT22;12319;49.204;8.116;2023-06-22T06:54:48;38.60;54.60
24164;DHT22;12319;49.204;8.116;2023-06-22T06:57:14;38.80;54.40
24164;DHT22;12319;49.204;8.116;2023-06-22T06:59:40;38.90;53.50
24164;DHT22;12319;49.204;8.116;2023-06-22T07:02:06;39.00;53.80
24164;DHT22;12319;49.204;8.116;2023-06-22T07:04:32;39.10;54.00
24164;DHT22;12319;49.204;8.116;2023-06-22T07:07:01;39.40;53.20
24164;DHT22;12319;49.204;8.116;2023-06-22T07:09:26;39.60;52.00
24164;DHT22;12319;49.204;8.116;2023-06-22T07:11:52;39.90;52.40
24164;DHT22;12319;49.204;8.116;2023-06-22T07:14:17;40.20;52.60
24164;DHT22;12319;49.204;8.116;2023-06-22T07:16:43;40.60;51.60
24164;DHT22;12319;49.204;8.116;2023-06-22T07:19:11;40.90;50.30
24164;DHT22;12319;49.204;8.116;2023-06-22T07:21:37;41.10;50.10
24164;DHT22;12319;49.204;8.116;2023-06-22T07:24:04;41.40;50.40
24164;DHT22;12319;49.204;8.116;2023-06-22T07:26:31;41.70;49.60
24164;DHT22;12319;49.204;8.116;2023-06-22T07:28:56;42.00;49.20
24164;DHT22;12319;49.204;8.116;2023-06-22T07:31:24;42.20;48.50
24164;DHT22;12319;49.204;8.116;2023-06-22T07:33:50;42.30;47.60
24164;DHT22;12319;49.204;8.116;2023-06-22T07:36:17;42.50;47.30
24164;DHT22;12319;49.204;8.116;2023-06-22T07:38:42;42.70;46.90
24164;DHT22;12319;49.204;8.116;2023-06-22T07:41:08;43.00;46.80
24164;DHT22;12319;49.204;8.116;2023-06-22T07:43:33;42.70;46.00
24164;DHT22;12319;49.204;8.116;2023-06-22T07:46:02;42.20;46.30
24164;DHT22;12319;49.204;8.116;2023-06-22T07:48:28;42.20;46.20
24164;DHT22;12319;49.204;8.116;2023-06-22T07:50:54;42.30;45.50
24164;DHT22;12319;49.204;8.116;2023-06-22T07:53:20;41.80;45.50
24164;DHT22;12319;49.204;8.116;2023-06-22T07:55:46;41.70;45.30
24164;DHT22;12319;49.204;8.116;2023-06-22T07:58:12;41.70;45.10
24164;DHT22;12319;49.204;8.116;2023-06-22T08:00:37;41.40;45.00
24164;DHT22;12319;49.204;8.116;2023-06-22T08:03:03;41.40;45.00
24164;DHT22;12319;49.204;8.116;2023-06-22T08:05:30;41.50;44.60
24164;DHT22;12319;49.204;8.116;2023-06-22T08:07:56;41.90;44.10
24164;DHT22;12319;49.204;8.116;2023-06-22T08:10:22;42.00;44.20
24164;DHT22;12319;49.204;8.116;2023-06-22T08:12:47;41.80;44.00
24164;DHT22;12319;49.204;8.116;2023-06-22T08:15:13;41.80;43.80
24164;DHT22;12319;49.204;8.116;2023-06-22T08:17:39;41.60;43.80
24164;DHT22;12319;49.204;8.116;2023-06-22T08:20:06;41.70;43.90
24164;DHT22;12319;49.204;8.116;2023-06-22T08:22:35;41.70;43.10
24164;DHT22;12319;49.204;8.116;2023-06-22T08:25:02;41.70;42.80
24164;DHT22;12319;49.204;8.116;2023-06-22T08:27:29;41.60;42.60
24164;DHT22;12319;49.204;8.116;2023-06-22T08:29:56;41.20;42.60
24164;DHT22;12319;49.204;8.116;2023-06-22T08:32:27;40.50;42.60
24164;DHT22;12319;49.204;8.116;2023-06-22T08:34:54;39.60;43.10
24164;DHT22;12319;49.204;8.116;2023-06-22T08:37:20;38.80;43.90
24164;DHT22;12319;49.204;8.116;2023-06-22T08:39:49;37.80;44.80
24164;DHT22;12319;49.204;8.116;2023-06-22T08:42:15;37.00;45.80
24164;DHT22;12319;49.204;8.116;2023-06-22T08:44:41;36.20;46.80
24164;DHT22;12319;49.204;8.116;2023-06-22T08:47:07;35.60;47.60
24164;DHT22;12319;49.204;8.116;2023-06-22T08:49:32;35.20;48.50
24164;DHT22;12319;49.204;8.116;2023-06-22T08:51:58;34.70;49.00
24164;DHT22;12319;49.204;8.116;2023-06-22T08:54:23;34.40;49.40
24164;DHT22;12319;49.204;8.116;2023-06-22T08:56:49;34.10;49.80
24164;DHT22;12319;49.204;8.116;2023-06-22T08:59:15;33.80;50.20
24164;DHT22;12319;49.204;8.116;2023-06-22T09:01:40;33.50;50.80
24164;DHT22;12319;49.204;8.116;2023-06-22T09:04:06;33.30;51.20
24164;DHT22;12319;49.204;8.116;2023-06-22T09:06:34;33.20;51.70
24164;DHT22;12319;49.204;8.116;2023-06-22T09:09:00;33.10;51.80
24164;DHT22;12319;49.204;8.116;2023-06-22T09:11:25;32.90;52.00
24164;DHT22;12319;49.204;8.116;2023-06-22T09:13:51;32.90;52.30
24164;DHT22;12319;49.204;8.116;2023-06-22T09:16:18;33.00;52.50
24164;DHT22;12319;49.204;8.116;2023-06-22T09:18:47;33.10;52.80
24164;DHT22;12319;49.204;8.116;2023-06-22T09:21:13;33.20;53.00
24164;DHT22;12319;49.204;8.116;2023-06-22T09:23:38;33.20;52.90
24164;DHT22;12319;49.204;8.116;2023-06-22T09:26:04;33.30;53.10
24164;DHT22;12319;49.204;8.116;2023-06-22T09:28:29;33.20;53.00
24164;DHT22;12319;49.204;8.116;2023-06-22T09:30:55;33.10;53.30
24164;DHT22;12319;49.204;8.116;2023-06-22T09:33:23;32.90;53.50
24164;DHT22;12319;49.204;8.116;2023-06-22T09:35:49;32.80;53.60
24164;DHT22;12319;49.204;8.116;2023-06-22T09:38:16;32.70;54.00
24164;DHT22;12319;49.204;8.116;2023-06-22T09:40:42;32.70;54.20
24164;DHT22;12319;49.204;8.116;2023-06-22T09:43:08;32.80;54.40
24164;DHT22;12319;49.204;8.116;2023-06-22T09:45:33;32.80;54.50
24164;DHT22;12319;49.204;8.116;2023-06-22T09:47:59;32.80;54.50
24164;DHT22;12319;49.204;8.116;2023-06-22T09:50:24;32.90;54.50
24164;DHT22;12319;49.204;8.116;2023-06-22T09:52:50;32.90;54.60
24164;DHT22;12319;49.204;8.116;2023-06-22T09:55:23;33.00;54.50
24164;DHT22;12319;49.204;8.116;2023-06-22T09:57:48;33.10;54.80
24164;DHT22;12319;49.204;8.116;2023-06-22T10:00:16;33.20;54.70
24164;DHT22;12319;49.204;8.116;2023-06-22T10:02:42;33.40;54.80
24164;DHT22;12319;49.204;8.116;2023-06-22T10:05:08;33.70;55.20
24164;DHT22;12319;49.204;8.116;2023-06-22T10:07:34;33.80;54.10
24164;DHT22;12319;49.204;8.116;2023-06-22T10:09:59;34.00;54.30
24164;DHT22;12319;49.204;8.116;2023-06-22T10:12:27;34.10;54.30
24164;DHT22;12319;49.204;8.116;2023-06-22T10:14:53;34.10;54.10
24164;DHT22;12319;49.204;8.116;2023-06-22T10:17:18;34.10;54.30
24164;DHT22;12319;49.204;8.116;2023-06-22T10:19:44;34.00;54.10
24164;DHT22;12319;49.204;8.116;2023-06-22T10:22:09;33.90;54.30
24164;DHT22;12319;49.204;8.116;2023-06-22T10:24:35;33.90;54.40
24164;DHT22;12319;49.204;8.116;2023-06-22T10:27:01;33.90;54.60
24164;DHT22;12319;49.204;8.116;2023-06-22T10:29:26;33.80;54.70
24164;DHT22;12319;49.204;8.116;2023-06-22T10:31:52;33.80;54.60
24164;DHT22;12319;49.204;8.116;2023-06-22T10:34:17;33.80;54.60
24164;DHT22;12319;49.204;8.116;2023-06-22T10:36:43;33.70;54.50
24164;DHT22;12319;49.204;8.116;2023-06-22T10:39:11;33.70;54.70
24164;DHT22;12319;49.204;8.116;2023-06-22T10:41:37;33.70;54.60
24164;DHT22;12319;49.204;8.116;2023-06-22T10:44:02;33.60;54.80
24164;DHT22;12319;49.204;8.116;2023-06-22T10:46:28;33.60;54.80
24164;DHT22;12319;49.204;8.116;2023-06-22T10:48:53;33.60;54.80
24164;DHT22;12319;49.204;8.116;2023-06-22T10:51:24;33.70;54.70
24164;DHT22;12319;49.204;8.116;2023-06-22T10:53:50;33.80;54.50
24164;DHT22;12319;49.204;8.116;2023-06-22T10:56:17;34.00;54.00
24164;DHT22;12319;49.204;8.116;2023-06-22T10:58:45;34.00;54.00
24164;DHT22;12319;49.204;8.116;2023-06-22T11:01:11;34.10;53.60
24164;DHT22;12319;49.204;8.116;2023-06-22T11:03:36;34.10;53.60
24164;DHT22;12319;49.204;8.116;2023-06-22T11:06:02;34.10;53.80
24164;DHT22;12319;49.204;8.116;2023-06-22T11:08:27;34.20;53.60
24164;DHT22;12319;49.204;8.116;2023-06-22T11:10:53;34.10;53.50
24164;DHT22;12319;49.204;8.116;2023-06-22T11:13:18;34.20;53.30
24164;DHT22;12319;49.204;8.116;2023-06-22T11:15:44;34.10;53.50
24164;DHT22;12319;49.204;8.116;2023-06-22T11:18:09;34.10;53.60
24164;DHT22;12319;49.204;8.116;2023-06-22T11:20:35;34.00;53.60
24164;DHT22;12319;49.204;8.116;2023-06-22T11:23:05;34.00;53.80
24164;DHT22;12319;49.204;8.116;2023-06-22T11:25:31;34.00;53.50
24164;DHT22;12319;49.204;8.116;2023-06-22T11:27:57;34.00;53.50
24164;DHT22;12319;49.204;8.116;2023-06-22T11:30:22;34.00;53.30
24164;DHT22;12319;49.204;8.116;2023-06-22T11:32:48;34.10;53.30
24164;DHT22;12319;49.204;8.116;2023-06-22T11:35:14;34.10;53.40
24164;DHT22;12319;49.204;8.116;2023-06-22T11:37:39;34.10;53.60
24164;DHT22;12319;49.204;8.116;2023-06-22T11:40:05;34.10;53.50
24164;DHT22;12319;49.204;8.116;2023-06-22T11:42:34;34.20;53.60
24164;DHT22;12319;49.204;8.116;2023-06-22T11:45:00;34.10;53.70
24164;DHT22;12319;49.204;8.116;2023-06-22T11:47:25;34.20;53.80
24164;DHT22;12319;49.204;8.116;2023-06-22T11:49:51;34.30;53.80
24164;DHT22;12319;49.204;8.116;2023-06-22T11:52:16;34.40;53.80
24164;DHT22;12319;49.204;8.116;2023-06-22T11:54:43;34.50;53.80
24164;DHT22;12319;49.204;8.116;2023-06-22T11:57:08;34.60;53.90
24164;DHT22;12319;49.204;8.116;2023-06-22T11:59:34;34.70;53.40
24164;DHT22;12319;49.204;8.116;2023-06-22T12:02:00;34.70;53.40
24164;DHT22;12319;49.204;8.116;2023-06-22T12:04:25;34.70;53.20
24164;DHT22;12319;49.204;8.116;2023-06-22T12:06:51;34.70;53.10
24164;DHT22;12319;49.204;8.116;2023-06-22T12:09:16;34.70;53.30
24164;DHT22;12319;49.204;8.116;2023-06-22T12:11:42;34.70;53.60
24164;DHT22;12319;49.204;8.116;2023-06-22T12:14:07;34.70;53.20
24164;DHT22;12319;49.204;8.116;2023-06-22T12:16:33;34.70;53.10
24164;DHT22;12319;49.204;8.116;2023-06-22T12:18:58;34.60;53.30
24164;DHT22;12319;49.204;8.116;2023-06-22T12:21:24;34.70;53.50
24164;DHT22;12319;49.204;8.116;2023-06-22T12:23:49;34.70;53.50
24164;DHT22;12319;49.204;8.116;2023-06-22T12:26:15;34.80;53.40
24164;DHT22;12319;49.204;8.116;2023-06-22T12:28:41;34.90;53.10
24164;DHT22;12319;49.204;8.116;2023-06-22T12:31:06;35.10;52.60
24164;DHT22;12319;49.204;8.116;2023-06-22T12:33:32;35.10;52.70
24164;DHT22;12319;49.204;8.116;2023-06-22T12:35:57;35.30;52.40
24164;DHT22;12319;49.204;8.116;2023-06-22T12:38:23;35.30;52.40
24164;DHT22;12319;49.204;8.116;2023-06-22T12:40:51;35.30;52.50
24164;DHT22;12319;49.204;8.116;2023-06-22T12:43:16;35.30;52.50
24164;DHT22;12319;49.204;8.116;2023-06-22T12:45:42;35.30;52.50
24164;DHT22;12319;49.204;8.116;2023-06-22T12:48:07;35.30;52.40
24164;DHT22;12319;49.204;8.116;2023-06-22T12:50:34;35.40;52.20
24164;DHT22;12319;49.204;8.116;2023-06-22T12:52:59;35.60;52.30
24164;DHT22;12319;49.204;8.116;2023-06-22T12:55:27;35.70;51.90
24164;DHT22;12319;49.204;8.116;2023-06-22T12:57:52;35.70;52.20
24164;DHT22;12319;49.204;8.116;2023-06-22T13:00:18;35.80;52.80
24164;DHT22;12319;49.204;8.116;2023-06-22T13:02:43;36.00;52.00
24164;DHT22;12319;49.204;8.116;2023-06-22T13:05:09;36.30;51.90
24164;DHT22;12319;49.204;8.116;2023-06-22T13:07:35;36.60;50.90
24164;DHT22;12319;49.204;8.116;2023-06-22T13:10:00;36.80;49.80
24164;DHT22;12319;49.204;8.116;2023-06-22T13:12:26;36.80;49.60
24164;DHT22;12319;49.204;8.116;2023-06-22T13:14:51;36.90;48.30
24164;DHT22;12319;49.204;8.116;2023-06-22T13:17:17;36.90;49.00
24164;DHT22;12319;49.204;8.116;2023-06-22T13:19:42;36.80;48.70
24164;DHT22;12319;49.204;8.116;2023-06-22T13:22:33;36.50;47.60
24164;DHT22;12319;49.204;8.116;2023-06-22T13:25:06;36.20;48.40
24164;DHT22;12319;49.204;8.116;2023-06-22T13:27:31;35.90;49.00
24164;DHT22;12319;49.204;8.116;2023-06-22T13:29:57;35.70;49.30
24164;DHT22;12319;49.204;8.116;2023-06-22T13:32:22;35.30;49.70
24164;DHT22;12319;49.204;8.116;2023-06-22T13:34:48;35.00;49.80
24164;DHT22;12319;49.204;8.116;2023-06-22T13:37:14;34.70;49.60
24164;DHT22;12319;49.204;8.116;2023-06-22T13:39:39;34.30;50.10
24164;DHT22;12319;49.204;8.116;2023-06-22T13:42:05;34.00;50.60
24164;DHT22;12319;49.204;8.116;2023-06-22T13:44:31;33.70;51.00
24164;DHT22;12319;49.204;8.116;2023-06-22T13:46:56;33.50;51.40
24164;DHT22;12319;49.204;8.116;2023-06-22T13:49:22;33.20;51.90
24164;DHT22;12319;49.204;8.116;2023-06-22T13:51:47;33.00;52.30
24164;DHT22;12319;49.204;8.116;2023-06-22T13:54:14;32.80;52.70
24164;DHT22;12319;49.204;8.116;2023-06-22T13:56:40;32.70;54.00
24164;DHT22;12319;49.204;8.116;2023-06-22T13:59:05;32.40;56.80
24164;DHT22;12319;49.204;8.116;2023-06-22T14:01:34;32.10;60.40
24164;DHT22;12319;49.204;8.116;2023-06-22T14:04:00;31.40;61.10
24164;DHT22;12319;49.204;8.116;2023-06-22T14:06:27;30.80;61.30
24164;DHT22;12319;49.204;8.116;2023-06-22T14:08:53;30.20;61.20
24164;DHT22;12319;49.204;8.116;2023-06-22T14:11:18;29.90;61.60
24164;DHT22;12319;49.204;8.116;2023-06-22T14:13:44;29.80;63.40
24164;DHT22;12319;49.204;8.116;2023-06-22T14:16:10;29.70;64.00
24164;DHT22;12319;49.204;8.116;2023-06-22T14:18:35;29.70;64.40
24164;DHT22;12319;49.204;8.116;2023-06-22T14:21:01;29.60;64.20
24164;DHT22;12319;49.204;8.116;2023-06-22T14:23:27;29.60;64.50
24164;DHT22;12319;49.204;8.116;2023-06-22T14:25:52;29.50;64.90
24164;DHT22;12319;49.204;8.116;2023-06-22T14:28:18;29.50;65.60
24164;DHT22;12319;49.204;8.116;2023-06-22T14:30:44;29.50;66.10
24164;DHT22;12319;49.204;8.116;2023-06-22T14:33:09;29.50;66.20
24164;DHT22;12319;49.204;8.116;2023-06-22T14:35:35;29.40;67.90
24164;DHT22;12319;49.204;8.116;2023-06-22T14:38:00;29.50;66.80
24164;DHT22;12319;49.204;8.116;2023-06-22T14:40:26;29.60;67.70
24164;DHT22;12319;49.204;8.116;2023-06-22T14:42:51;29.80;67.70
24164;DHT22;12319;49.204;8.116;2023-06-22T14:45:17;30.10;68.30
24164;DHT22;12319;49.204;8.116;2023-06-22T14:47:42;30.40;68.40
24164;DHT22;12319;49.204;8.116;2023-06-22T14:50:08;30.80;68.20
24164;DHT22;12319;49.204;8.116;2023-06-22T14:52:34;31.20;68.00
24164;DHT22;12319;49.204;8.116;2023-06-22T14:54:59;31.70;67.60
24164;DHT22;12319;49.204;8.116;2023-06-22T14:57:25;32.00;67.60
24164;DHT22;12319;49.204;8.116;2023-06-22T14:59:50;32.40;67.20
24164;DHT22;12319;49.204;8.116;2023-06-22T15:02:16;32.70;67.40
24164;DHT22;12319;49.204;8.116;2023-06-22T15:04:42;33.00;67.30
24164;DHT22;12319;49.204;8.116;2023-06-22T15:07:08;33.30;66.40
24164;DHT22;12319;49.204;8.116;2023-06-22T15:09:33;33.30;65.40
24164;DHT22;12319;49.204;8.116;2023-06-22T15:11:59;33.20;65.30
24164;DHT22;12319;49.204;8.116;2023-06-22T15:14:27;33.10;64.90
24164;DHT22;12319;49.204;8.116;2023-06-22T15:16:53;33.00;64.70
24164;DHT22;12319;49.204;8.116;2023-06-22T15:19:18;32.80;63.70
24164;DHT22;12319;49.204;8.116;2023-06-22T15:21:44;32.50;63.30
24164;DHT22;12319;49.204;8.116;2023-06-22T15:24:10;32.30;63.50
24164;DHT22;12319;49.204;8.116;2023-06-22T15:26:36;32.10;63.10
24164;DHT22;12319;49.204;8.116;2023-06-22T15:29:01;31.80;63.50
24164;DHT22;12319;49.204;8.116;2023-06-22T15:31:27;31.70;64.10